sensor_id;sensor_type;location;lat;lon;timestamp;P1;durP1;ratioP1;P2;durP2;ratioP2
56005;SDS011;41888;44.696;10.522;2023-09-19T00:01:38;13.82;;;3.38;;
56005;SDS011;41888;44.696;10.522;2023-09-19T00:04:06;11.55;;;3.17;;
56005;SDS011;41888;44.696;10.522;2023-09-19T00:06:34;11.27;;;3.95;;
56005;SDS011;41888;44.696;10.522;2023-09-19T00:12:26;10.25;;;2.90;;
56005;SDS011;41888;44.696;10.522;2023-09-19T00:14:52;10.00;;;3.28;;
56005;SDS011;41888;44.696;10.522;2023-09-19T00:17:18;9.02;;;2.53;;
56005;SDS011;41888;44.696;10.522;2023-09-19T00:19:45;7.70;;;2.90;;
56005;SDS011;41888;44.696;10.522;2023-09-19T00:22:16;7.30;;;2.75;;
56005;SDS011;41888;44.696;10.522;2023-09-19T00:24:44;6.88;;;2.67;;
56005;SDS011;41888;44.696;10.522;2023-09-19T00:27:11;11.15;;;3.08;;
56005;SDS011;41888;44.696;10.522;2023-09-19T00:29:37;8.73;;;3.00;;
56005;SDS011;41888;44.696;10.522;2023-09-19T00:32:04;8.68;;;3.10;;
56005;SDS011;41888;44.696;10.522;2023-09-19T00:34:32;12.55;;;3.58;;
56005;SDS011;41888;44.696;10.522;2023-09-19T00:36:59;10.88;;;3.40;;
56005;SDS011;41888;44.696;10.522;2023-09-19T00:39:25;7.97;;;2.83;;
56005;SDS011;41888;44.696;10.522;2023-09-19T00:41:52;13.00;;;3.30;;
56005;SDS011;41888;44.696;10.522;2023-09-19T00:44:19;8.73;;;3.63;;
56005;SDS011;41888;44.696;10.522;2023-09-19T00:46:48;12.32;;;3.25;;
56005;SDS011;41888;44.696;10.522;2023-09-19T00:49:15;9.23;;;3.20;;
56005;SDS011;41888;44.696;10.522;2023-09-19T00:51:42;14.02;;;3.25;;
56005;SDS011;41888;44.696;10.522;2023-09-19T00:54:12;11.20;;;4.55;;
56005;SDS011;41888;44.696;10.522;2023-09-19T01:00:06;14.77;;;2.95;;
56005;SDS011;41888;44.696;10.522;2023-09-19T01:02:37;14.55;;;3.40;;
56005;SDS011;41888;44.696;10.522;2023-09-19T01:05:03;14.25;;;3.33;;
56005;SDS011;41888;44.696;10.522;2023-09-19T01:07:31;13.10;;;3.83;;
56005;SDS011;41888;44.696;10.522;2023-09-19T01:10:02;12.77;;;3.80;;
56005;SDS011;41888;44.696;10.522;2023-09-19T01:12:45;12.15;;;4.10;;
56005;SDS011;41888;44.696;10.522;2023-09-19T01:18:03;16.88;;;5.03;;
56005;SDS011;41888;44.696;10.522;2023-09-19T01:20:43;9.55;;;3.45;;
56005;SDS011;41888;44.696;10.522;2023-09-19T01:23:31;11.15;;;3.85;;
56005;SDS011;41888;44.696;10.522;2023-09-19T01:32:17;16.13;;;5.13;;
56005;SDS011;41888;44.696;10.522;2023-09-19T01:34:52;10.83;;;4.17;;
56005;SDS011;41888;44.696;10.522;2023-09-19T01:40:04;11.85;;;4.72;;
56005;SDS011;41888;44.696;10.522;2023-09-19T01:42:45;13.23;;;5.28;;
56005;SDS011;41888;44.696;10.522;2023-09-19T01:51:08;12.27;;;4.40;;
56005;SDS011;41888;44.696;10.522;2023-09-19T01:53:41;12.77;;;5.45;;
56005;SDS011;41888;44.696;10.522;2023-09-19T01:56:12;14.63;;;4.55;;
56005;SDS011;41888;44.696;10.522;2023-09-19T01:58:48;8.45;;;4.18;;
56005;SDS011;41888;44.696;10.522;2023-09-19T02:01:20;13.50;;;4.32;;
56005;SDS011;41888;44.696;10.522;2023-09-19T02:03:49;14.48;;;4.10;;
56005;SDS011;41888;44.696;10.522;2023-09-19T02:06:16;10.90;;;4.15;;
56005;SDS011;41888;44.696;10.522;2023-09-19T02:08:44;15.10;;;3.97;;
56005;SDS011;41888;44.696;10.522;2023-09-19T02:11:12;14.60;;;5.35;;
56005;SDS011;41888;44.696;10.522;2023-09-19T02:13:39;10.52;;;4.55;;
56005;SDS011;41888;44.696;10.522;2023-09-19T02:16:06;12.30;;;3.92;;
56005;SDS011;41888;44.696;10.522;2023-09-19T02:18:34;13.13;;;4.47;;
56005;SDS011;41888;44.696;10.522;2023-09-19T02:21:01;14.48;;;4.82;;
56005;SDS011;41888;44.696;10.522;2023-09-19T02:23:29;14.98;;;4.80;;
56005;SDS011;41888;44.696;10.522;2023-09-19T02:25:55;13.82;;;4.45;;
56005;SDS011;41888;44.696;10.522;2023-09-19T02:28:28;15.13;;;5.10;;
56005;SDS011;41888;44.696;10.522;2023-09-19T02:30:57;13.30;;;5.60;;
56005;SDS011;41888;44.696;10.522;2023-09-19T02:33:26;14.80;;;4.57;;
56005;SDS011;41888;44.696;10.522;2023-09-19T02:35:57;13.00;;;4.60;;
56005;SDS011;41888;44.696;10.522;2023-09-19T02:38:24;15.80;;;4.70;;
56005;SDS011;41888;44.696;10.522;2023-09-19T02:40:51;12.38;;;4.88;;
56005;SDS011;41888;44.696;10.522;2023-09-19T02:43:20;14.20;;;5.35;;
56005;SDS011;41888;44.696;10.522;2023-09-19T02:45:47;13.40;;;5.95;;
56005;SDS011;41888;44.696;10.522;2023-09-19T02:48:18;13.68;;;5.13;;
56005;SDS011;41888;44.696;10.522;2023-09-19T02:50:44;20.17;;;6.03;;
56005;SDS011;41888;44.696;10.522;2023-09-19T02:53:11;14.30;;;5.05;;
56005;SDS011;41888;44.696;10.522;2023-09-19T02:55:37;14.57;;;5.97;;
56005;SDS011;41888;44.696;10.522;2023-09-19T02:58:05;15.05;;;6.18;;
56005;SDS011;41888;44.696;10.522;2023-09-19T03:00:39;15.65;;;6.25;;
56005;SDS011;41888;44.696;10.522;2023-09-19T03:03:07;10.88;;;5.20;;
56005;SDS011;41888;44.696;10.522;2023-09-19T03:05:33;9.50;;;4.50;;
56005;SDS011;41888;44.696;10.522;2023-09-19T03:08:00;13.50;;;5.20;;
56005;SDS011;41888;44.696;10.522;2023-09-19T03:10:26;13.32;;;5.50;;
56005;SDS011;41888;44.696;10.522;2023-09-19T03:12:54;13.02;;;5.50;;
56005;SDS011;41888;44.696;10.522;2023-09-19T03:15:20;11.15;;;4.00;;
56005;SDS011;41888;44.696;10.522;2023-09-19T03:17:47;12.07;;;5.05;;
56005;SDS011;41888;44.696;10.522;2023-09-19T03:20:14;13.32;;;4.32;;
56005;SDS011;41888;44.696;10.522;2023-09-19T03:22:44;12.50;;;5.10;;
56005;SDS011;41888;44.696;10.522;2023-09-19T03:25:11;11.07;;;4.88;;
56005;SDS011;41888;44.696;10.522;2023-09-19T03:27:40;10.48;;;4.20;;
56005;SDS011;41888;44.696;10.522;2023-09-19T03:30:07;11.63;;;4.43;;
56005;SDS011;41888;44.696;10.522;2023-09-19T03:32:37;10.35;;;4.15;;
56005;SDS011;41888;44.696;10.522;2023-09-19T03:35:14;12.10;;;5.43;;
56005;SDS011;41888;44.696;10.522;2023-09-19T03:37:42;11.70;;;4.45;;
56005;SDS011;41888;44.696;10.522;2023-09-19T03:40:09;9.73;;;4.05;;
56005;SDS011;41888;44.696;10.522;2023-09-19T03:42:39;16.52;;;4.93;;
56005;SDS011;41888;44.696;10.522;2023-09-19T03:45:07;11.93;;;4.40;;
56005;SDS011;41888;44.696;10.522;2023-09-19T03:47:37;9.55;;;4.85;;
56005;SDS011;41888;44.696;10.522;2023-09-19T03:50:04;14.02;;;5.22;;
56005;SDS011;41888;44.696;10.522;2023-09-19T03:52:36;11.20;;;5.82;;
56005;SDS011;41888;44.696;10.522;2023-09-19T03:55:02;11.98;;;5.70;;
56005;SDS011;41888;44.696;10.522;2023-09-19T03:57:29;13.18;;;6.13;;
56005;SDS011;41888;44.696;10.522;2023-09-19T03:59:55;14.18;;;5.95;;
56005;SDS011;41888;44.696;10.522;2023-09-19T04:02:22;16.75;;;6.35;;
56005;SDS011;41888;44.696;10.522;2023-09-19T04:04:49;14.63;;;5.30;;
56005;SDS011;41888;44.696;10.522;2023-09-19T04:07:16;16.52;;;6.15;;
56005;SDS011;41888;44.696;10.522;2023-09-19T04:09:44;13.35;;;6.38;;
56005;SDS011;41888;44.696;10.522;2023-09-19T04:12:11;16.13;;;6.57;;
56005;SDS011;41888;44.696;10.522;2023-09-19T04:14:37;15.52;;;5.78;;
56005;SDS011;41888;44.696;10.522;2023-09-19T04:17:04;17.85;;;6.15;;
56005;SDS011;41888;44.696;10.522;2023-09-19T04:19:30;13.50;;;5.70;;
56005;SDS011;41888;44.696;10.522;2023-09-19T04:21:56;14.77;;;6.53;;
56005;SDS011;41888;44.696;10.522;2023-09-19T04:24:22;18.27;;;6.60;;
56005;SDS011;41888;44.696;10.522;2023-09-19T04:26:49;11.57;;;7.63;;
56005;SDS011;41888;44.696;10.522;2023-09-19T04:29:15;11.55;;;7.57;;
56005;SDS011;41888;44.696;10.522;2023-09-19T04:31:42;15.40;;;6.03;;
56005;SDS011;41888;44.696;10.522;2023-09-19T04:34:11;17.13;;;6.20;;
56005;SDS011;41888;44.696;10.522;2023-09-19T04:36:40;12.85;;;5.97;;
56005;SDS011;41888;44.696;10.522;2023-09-19T04:39:07;17.10;;;6.63;;
56005;SDS011;41888;44.696;10.522;2023-09-19T04:41:33;19.92;;;8.02;;
56005;SDS011;41888;44.696;10.522;2023-09-19T04:44:00;14.80;;;6.35;;
56005;SDS011;41888;44.696;10.522;2023-09-19T04:46:26;15.50;;;7.60;;
56005;SDS011;41888;44.696;10.522;2023-09-19T04:48:52;19.35;;;7.82;;
56005;SDS011;41888;44.696;10.522;2023-09-19T04:51:19;22.65;;;8.25;;
56005;SDS011;41888;44.696;10.522;2023-09-19T04:53:45;17.35;;;7.72;;
56005;SDS011;41888;44.696;10.522;2023-09-19T04:56:13;18.98;;;9.35;;
56005;SDS011;41888;44.696;10.522;2023-09-19T04:58:40;20.92;;;7.10;;
56005;SDS011;41888;44.696;10.522;2023-09-19T05:01:06;14.40;;;7.72;;
56005;SDS011;41888;44.696;10.522;2023-09-19T05:03:36;15.73;;;7.50;;
56005;SDS011;41888;44.696;10.522;2023-09-19T05:06:03;17.33;;;8.52;;
56005;SDS011;41888;44.696;10.522;2023-09-19T05:08:30;20.17;;;8.57;;
56005;SDS011;41888;44.696;10.522;2023-09-19T05:10:56;17.90;;;8.18;;
56005;SDS011;41888;44.696;10.522;2023-09-19T05:13:22;16.80;;;7.45;;
56005;SDS011;41888;44.696;10.522;2023-09-19T05:15:49;19.73;;;8.60;;
56005;SDS011;41888;44.696;10.522;2023-09-19T05:18:16;21.02;;;8.35;;
56005;SDS011;41888;44.696;10.522;2023-09-19T05:20:42;18.13;;;8.20;;
56005;SDS011;41888;44.696;10.522;2023-09-19T05:23:09;15.45;;;7.43;;
56005;SDS011;41888;44.696;10.522;2023-09-19T05:25:37;14.15;;;7.18;;
56005;SDS011;41888;44.696;10.522;2023-09-19T05:30:32;21.20;;;8.05;;
56005;SDS011;41888;44.696;10.522;2023-09-19T05:33:01;11.60;;;6.10;;
56005;SDS011;41888;44.696;10.522;2023-09-19T05:35:29;21.00;;;7.90;;
56005;SDS011;41888;44.696;10.522;2023-09-19T05:37:56;13.30;;;6.65;;
56005;SDS011;41888;44.696;10.522;2023-09-19T05:40:23;14.70;;;5.53;;
56005;SDS011;41888;44.696;10.522;2023-09-19T05:42:50;14.82;;;7.18;;
56005;SDS011;41888;44.696;10.522;2023-09-19T05:45:16;18.52;;;6.78;;
56005;SDS011;41888;44.696;10.522;2023-09-19T05:47:47;12.10;;;5.97;;
56005;SDS011;41888;44.696;10.522;2023-09-19T05:50:15;17.55;;;7.25;;
56005;SDS011;41888;44.696;10.522;2023-09-19T05:52:41;14.77;;;5.22;;
56005;SDS011;41888;44.696;10.522;2023-09-19T05:55:09;13.73;;;5.97;;
56005;SDS011;41888;44.696;10.522;2023-09-19T05:57:35;12.43;;;4.88;;
56005;SDS011;41888;44.696;10.522;2023-09-19T06:00:07;12.02;;;4.82;;
56005;SDS011;41888;44.696;10.522;2023-09-19T06:02:36;16.60;;;5.40;;
56005;SDS011;41888;44.696;10.522;2023-09-19T06:05:03;11.90;;;5.47;;
56005;SDS011;41888;44.696;10.522;2023-09-19T06:07:31;11.95;;;4.95;;
56005;SDS011;41888;44.696;10.522;2023-09-19T06:10:05;15.77;;;5.75;;
56005;SDS011;41888;44.696;10.522;2023-09-19T06:12:41;13.35;;;5.68;;
56005;SDS011;41888;44.696;10.522;2023-09-19T06:15:11;11.88;;;4.68;;
56005;SDS011;41888;44.696;10.522;2023-09-19T06:17:47;10.38;;;4.35;;
56005;SDS011;41888;44.696;10.522;2023-09-19T06:20:14;11.07;;;4.38;;
56005;SDS011;41888;44.696;10.522;2023-09-19T06:22:42;11.48;;;4.93;;
56005;SDS011;41888;44.696;10.522;2023-09-19T06:25:09;9.50;;;4.07;;
56005;SDS011;41888;44.696;10.522;2023-09-19T06:27:37;14.70;;;5.47;;
56005;SDS011;41888;44.696;10.522;2023-09-19T06:30:08;8.05;;;4.85;;
56005;SDS011;41888;44.696;10.522;2023-09-19T06:32:36;12.50;;;5.72;;
56005;SDS011;41888;44.696;10.522;2023-09-19T06:35:02;19.10;;;6.82;;
56005;SDS011;41888;44.696;10.522;2023-09-19T06:37:32;18.20;;;6.43;;
56005;SDS011;41888;44.696;10.522;2023-09-19T06:40:00;12.52;;;6.40;;
56005;SDS011;41888;44.696;10.522;2023-09-19T06:42:26;13.07;;;5.70;;
56005;SDS011;41888;44.696;10.522;2023-09-19T06:44:53;18.23;;;7.22;;
56005;SDS011;41888;44.696;10.522;2023-09-19T06:47:19;14.82;;;6.40;;
56005;SDS011;41888;44.696;10.522;2023-09-19T06:49:46;11.15;;;6.30;;
56005;SDS011;41888;44.696;10.522;2023-09-19T06:52:13;14.10;;;6.70;;
56005;SDS011;41888;44.696;10.522;2023-09-19T06:54:40;16.80;;;9.57;;
56005;SDS011;41888;44.696;10.522;2023-09-19T06:57:06;20.27;;;8.77;;
56005;SDS011;41888;44.696;10.522;2023-09-19T06:59:35;20.50;;;10.13;;
56005;SDS011;41888;44.696;10.522;2023-09-19T07:02:02;18.77;;;8.52;;
56005;SDS011;41888;44.696;10.522;2023-09-19T07:04:31;22.48;;;9.80;;
56005;SDS011;41888;44.696;10.522;2023-09-19T07:06:57;19.52;;;9.07;;
56005;SDS011;41888;44.696;10.522;2023-09-19T07:09:24;19.88;;;10.27;;
56005;SDS011;41888;44.696;10.522;2023-09-19T07:11:52;19.77;;;10.10;;
56005;SDS011;41888;44.696;10.522;2023-09-19T07:14:19;16.60;;;8.70;;
56005;SDS011;41888;44.696;10.522;2023-09-19T07:16:45;16.52;;;10.02;;
56005;SDS011;41888;44.696;10.522;2023-09-19T07:19:12;23.73;;;11.63;;
56005;SDS011;41888;44.696;10.522;2023-09-19T07:21:40;21.15;;;9.35;;
56005;SDS011;41888;44.696;10.522;2023-09-19T07:24:07;21.08;;;10.05;;
56005;SDS011;41888;44.696;10.522;2023-09-19T07:26:33;20.95;;;10.75;;
56005;SDS011;41888;44.696;10.522;2023-09-19T07:29:00;18.63;;;10.23;;
56005;SDS011;41888;44.696;10.522;2023-09-19T07:31:31;19.83;;;9.88;;
56005;SDS011;41888;44.696;10.522;2023-09-19T07:33:58;18.88;;;10.57;;
56005;SDS011;41888;44.696;10.522;2023-09-19T07:36:24;19.42;;;9.70;;
56005;SDS011;41888;44.696;10.522;2023-09-19T07:38:51;16.90;;;9.82;;
56005;SDS011;41888;44.696;10.522;2023-09-19T07:41:17;18.85;;;9.57;;
56005;SDS011;41888;44.696;10.522;2023-09-19T07:43:43;20.13;;;9.82;;
56005;SDS011;41888;44.696;10.522;2023-09-19T07:46:09;20.63;;;10.32;;
56005;SDS011;41888;44.696;10.522;2023-09-19T07:48:36;20.45;;;11.07;;
56005;SDS011;41888;44.696;10.522;2023-09-19T07:51:06;19.30;;;10.05;;
56005;SDS011;41888;44.696;10.522;2023-09-19T07:53:36;20.20;;;11.02;;
56005;SDS011;41888;44.696;10.522;2023-09-19T07:58:30;22.35;;;11.48;;
56005;SDS011;41888;44.696;10.522;2023-09-19T08:01:08;25.17;;;10.57;;
56005;SDS011;41888;44.696;10.522;2023-09-19T08:03:35;25.90;;;12.25;;
56005;SDS011;41888;44.696;10.522;2023-09-19T08:06:06;17.23;;;10.68;;
56005;SDS011;41888;44.696;10.522;2023-09-19T08:08:33;23.70;;;12.27;;
56005;SDS011;41888;44.696;10.522;2023-09-19T08:11:02;18.38;;;9.38;;
56005;SDS011;41888;44.696;10.522;2023-09-19T08:13:40;19.17;;;10.38;;
56005;SDS011;41888;44.696;10.522;2023-09-19T08:16:12;23.75;;;10.55;;
56005;SDS011;41888;44.696;10.522;2023-09-19T08:18:40;23.88;;;10.55;;
56005;SDS011;41888;44.696;10.522;2023-09-19T08:21:07;23.20;;;10.35;;
56005;SDS011;41888;44.696;10.522;2023-09-19T08:23:38;21.60;;;9.32;;
56005;SDS011;41888;44.696;10.522;2023-09-19T08:26:05;24.33;;;10.38;;
56005;SDS011;41888;44.696;10.522;2023-09-19T08:28:36;22.20;;;10.50;;
56005;SDS011;41888;44.696;10.522;2023-09-19T08:31:06;21.67;;;10.98;;
56005;SDS011;41888;44.696;10.522;2023-09-19T08:33:34;20.20;;;10.98;;
56005;SDS011;41888;44.696;10.522;2023-09-19T08:36:01;20.30;;;10.30;;
56005;SDS011;41888;44.696;10.522;2023-09-19T08:38:33;18.63;;;9.35;;
56005;SDS011;41888;44.696;10.522;2023-09-19T08:41:00;24.98;;;9.48;;
56005;SDS011;41888;44.696;10.522;2023-09-19T08:43:30;19.23;;;10.75;;
56005;SDS011;41888;44.696;10.522;2023-09-19T08:46:20;18.55;;;8.80;;
56005;SDS011;41888;44.696;10.522;2023-09-19T08:48:47;18.27;;;9.05;;
56005;SDS011;41888;44.696;10.522;2023-09-19T08:51:18;19.63;;;9.20;;
56005;SDS011;41888;44.696;10.522;2023-09-19T08:53:54;19.42;;;8.32;;
56005;SDS011;41888;44.696;10.522;2023-09-19T08:56:26;13.77;;;6.97;;
56005;SDS011;41888;44.696;10.522;2023-09-19T08:59:00;17.70;;;7.95;;
56005;SDS011;41888;44.696;10.522;2023-09-19T09:01:29;14.45;;;6.63;;
56005;SDS011;41888;44.696;10.522;2023-09-19T09:03:57;19.70;;;9.82;;
56005;SDS011;41888;44.696;10.522;2023-09-19T09:06:24;15.90;;;8.38;;
56005;SDS011;41888;44.696;10.522;2023-09-19T09:08:53;16.17;;;8.35;;
56005;SDS011;41888;44.696;10.522;2023-09-19T09:11:20;15.02;;;8.35;;
56005;SDS011;41888;44.696;10.522;2023-09-19T09:13:48;14.15;;;7.95;;
56005;SDS011;41888;44.696;10.522;2023-09-19T09:16:14;21.48;;;9.32;;
56005;SDS011;41888;44.696;10.522;2023-09-19T09:18:44;17.20;;;9.68;;
56005;SDS011;41888;44.696;10.522;2023-09-19T09:21:11;18.00;;;8.85;;
56005;SDS011;41888;44.696;10.522;2023-09-19T09:23:38;17.77;;;8.35;;
56005;SDS011;41888;44.696;10.522;2023-09-19T09:26:04;13.52;;;8.68;;
56005;SDS011;41888;44.696;10.522;2023-09-19T09:28:33;16.33;;;7.80;;
56005;SDS011;41888;44.696;10.522;2023-09-19T09:31:01;18.95;;;9.85;;
56005;SDS011;41888;44.696;10.522;2023-09-19T09:33:32;21.63;;;10.25;;
56005;SDS011;41888;44.696;10.522;2023-09-19T09:35:59;18.50;;;9.63;;
56005;SDS011;41888;44.696;10.522;2023-09-19T09:38:44;21.00;;;9.90;;
56005;SDS011;41888;44.696;10.522;2023-09-19T09:41:13;20.35;;;9.63;;
56005;SDS011;41888;44.696;10.522;2023-09-19T09:43:52;20.08;;;9.88;;
56005;SDS011;41888;44.696;10.522;2023-09-19T09:46:24;22.27;;;12.07;;
56005;SDS011;41888;44.696;10.522;2023-09-19T09:51:38;32.22;;;13.50;;
56005;SDS011;41888;44.696;10.522;2023-09-19T09:54:22;23.08;;;11.80;;
56005;SDS011;41888;44.696;10.522;2023-09-19T09:56:53;21.30;;;11.65;;
56005;SDS011;41888;44.696;10.522;2023-09-19T09:59:42;21.02;;;11.18;;
56005;SDS011;41888;44.696;10.522;2023-09-19T10:02:19;20.77;;;10.82;;
56005;SDS011;41888;44.696;10.522;2023-09-19T10:04:53;20.77;;;10.48;;
56005;SDS011;41888;44.696;10.522;2023-09-19T10:07:40;19.02;;;10.32;;
56005;SDS011;41888;44.696;10.522;2023-09-19T10:10:12;20.63;;;11.40;;
56005;SDS011;41888;44.696;10.522;2023-09-19T10:12:42;25.55;;;9.85;;
56005;SDS011;41888;44.696;10.522;2023-09-19T10:15:17;20.67;;;11.05;;
56005;SDS011;41888;44.696;10.522;2023-09-19T10:17:46;22.35;;;10.73;;
56005;SDS011;41888;44.696;10.522;2023-09-19T10:20:13;18.63;;;10.05;;
56005;SDS011;41888;44.696;10.522;2023-09-19T10:22:58;23.63;;;11.20;;
56005;SDS011;41888;44.696;10.522;2023-09-19T10:25:26;19.75;;;10.32;;
56005;SDS011;41888;44.696;10.522;2023-09-19T10:28:00;24.83;;;11.50;;
56005;SDS011;41888;44.696;10.522;2023-09-19T10:30:31;22.15;;;11.48;;
56005;SDS011;41888;44.696;10.522;2023-09-19T10:33:02;20.63;;;9.90;;
56005;SDS011;41888;44.696;10.522;2023-09-19T10:35:30;20.67;;;9.35;;
56005;SDS011;41888;44.696;10.522;2023-09-19T10:38:01;19.45;;;9.82;;
56005;SDS011;41888;44.696;10.522;2023-09-19T10:40:32;26.67;;;10.93;;
56005;SDS011;41888;44.696;10.522;2023-09-19T10:43:04;25.83;;;11.73;;
56005;SDS011;41888;44.696;10.522;2023-09-19T10:45:34;19.88;;;9.05;;
56005;SDS011;41888;44.696;10.522;2023-09-19T10:48:05;20.95;;;9.65;;
56005;SDS011;41888;44.696;10.522;2023-09-19T10:50:52;20.92;;;10.45;;
56005;SDS011;41888;44.696;10.522;2023-09-19T10:53:25;22.85;;;9.88;;
56005;SDS011;41888;44.696;10.522;2023-09-19T10:55:57;17.60;;;9.50;;
56005;SDS011;41888;44.696;10.522;2023-09-19T10:58:28;20.05;;;9.13;;
56005;SDS011;41888;44.696;10.522;2023-09-19T11:00:59;21.02;;;10.10;;
56005;SDS011;41888;44.696;10.522;2023-09-19T11:03:37;19.02;;;9.18;;
56005;SDS011;41888;44.696;10.522;2023-09-19T11:06:13;17.55;;;7.60;;
56005;SDS011;41888;44.696;10.522;2023-09-19T11:30:37;17.45;;;8.07;;
56005;SDS011;41888;44.696;10.522;2023-09-19T11:41:36;17.23;;;7.53;;
56005;SDS011;41888;44.696;10.522;2023-09-19T11:46:51;14.50;;;7.15;;
56005;SDS011;41888;44.696;10.522;2023-09-19T11:49:17;15.07;;;7.60;;
56005;SDS011;41888;44.696;10.522;2023-09-19T11:51:51;20.90;;;7.22;;
56005;SDS011;41888;44.696;10.522;2023-09-19T11:54:17;13.00;;;5.85;;
56005;SDS011;41888;44.696;10.522;2023-09-19T11:56:48;14.57;;;6.97;;
56005;SDS011;41888;44.696;10.522;2023-09-19T11:59:21;16.83;;;8.27;;
56005;SDS011;41888;44.696;10.522;2023-09-19T12:01:53;16.65;;;7.30;;
56005;SDS011;41888;44.696;10.522;2023-09-19T12:04:42;17.52;;;8.13;;
56005;SDS011;41888;44.696;10.522;2023-09-19T12:12:28;16.63;;;6.90;;
56005;SDS011;41888;44.696;10.522;2023-09-19T12:14:55;15.52;;;6.72;;
56005;SDS011;41888;44.696;10.522;2023-09-19T12:17:36;15.45;;;7.43;;
56005;SDS011;41888;44.696;10.522;2023-09-19T12:20:04;12.65;;;6.03;;
56005;SDS011;41888;44.696;10.522;2023-09-19T12:22:48;18.67;;;7.40;;
56005;SDS011;41888;44.696;10.522;2023-09-19T12:25:15;17.85;;;6.53;;
56005;SDS011;41888;44.696;10.522;2023-09-19T12:27:43;13.68;;;6.18;;
56005;SDS011;41888;44.696;10.522;2023-09-19T12:30:12;13.95;;;5.30;;
56005;SDS011;41888;44.696;10.522;2023-09-19T12:32:47;9.38;;;4.68;;
56005;SDS011;41888;44.696;10.522;2023-09-19T12:35:33;13.32;;;6.43;;
56005;SDS011;41888;44.696;10.522;2023-09-19T12:38:00;11.10;;;5.70;;
56005;SDS011;41888;44.696;10.522;2023-09-19T12:40:28;10.40;;;6.18;;
56005;SDS011;41888;44.696;10.522;2023-09-19T12:42:58;16.90;;;6.63;;
56005;SDS011;41888;44.696;10.522;2023-09-19T12:45:27;12.50;;;6.47;;
56005;SDS011;41888;44.696;10.522;2023-09-19T12:51:06;12.18;;;5.20;;
56005;SDS011;41888;44.696;10.522;2023-09-19T12:53:44;10.57;;;6.00;;
56005;SDS011;41888;44.696;10.522;2023-09-19T12:56:13;14.00;;;6.68;;
56005;SDS011;41888;44.696;10.522;2023-09-19T12:58:56;8.90;;;5.97;;
56005;SDS011;41888;44.696;10.522;2023-09-19T13:01:28;12.25;;;6.18;;
56005;SDS011;41888;44.696;10.522;2023-09-19T13:06:54;14.95;;;6.03;;
56005;SDS011;41888;44.696;10.522;2023-09-19T13:09:25;10.75;;;5.43;;
56005;SDS011;41888;44.696;10.522;2023-09-19T13:12:03;16.05;;;6.43;;
56005;SDS011;41888;44.696;10.522;2023-09-19T13:15:06;9.63;;;5.53;;
56005;SDS011;41888;44.696;10.522;2023-09-19T13:17:47;10.48;;;6.05;;
56005;SDS011;41888;44.696;10.522;2023-09-19T13:20:21;15.10;;;6.07;;
56005;SDS011;41888;44.696;10.522;2023-09-19T13:22:52;15.98;;;6.05;;
56005;SDS011;41888;44.696;10.522;2023-09-19T13:25:35;13.00;;;6.47;;
56005;SDS011;41888;44.696;10.522;2023-09-19T13:28:05;12.15;;;6.35;;
56005;SDS011;41888;44.696;10.522;2023-09-19T13:30:31;13.77;;;5.68;;
56005;SDS011;41888;44.696;10.522;2023-09-19T13:33:05;10.65;;;5.72;;
56005;SDS011;41888;44.696;10.522;2023-09-19T13:35:34;8.98;;;4.88;;
56005;SDS011;41888;44.696;10.522;2023-09-19T13:38:03;13.98;;;5.63;;
56005;SDS011;41888;44.696;10.522;2023-09-19T13:40:31;12.43;;;5.68;;
56005;SDS011;41888;44.696;10.522;2023-09-19T13:43:00;8.85;;;4.85;;
56005;SDS011;41888;44.696;10.522;2023-09-19T13:45:26;14.18;;;6.13;;
56005;SDS011;41888;44.696;10.522;2023-09-19T13:47:55;12.93;;;5.13;;
56005;SDS011;41888;44.696;10.522;2023-09-19T13:50:24;12.30;;;5.10;;
56005;SDS011;41888;44.696;10.522;2023-09-19T13:52:51;11.70;;;5.40;;
56005;SDS011;41888;44.696;10.522;2023-09-19T13:55:18;11.70;;;6.38;;
56005;SDS011;41888;44.696;10.522;2023-09-19T13:57:46;10.60;;;4.95;;
56005;SDS011;41888;44.696;10.522;2023-09-19T14:00:15;13.27;;;5.68;;
56005;SDS011;41888;44.696;10.522;2023-09-19T14:02:42;10.23;;;5.43;;
56005;SDS011;41888;44.696;10.522;2023-09-19T14:05:10;13.30;;;6.10;;
56005;SDS011;41888;44.696;10.522;2023-09-19T14:07:42;10.70;;;5.22;;
56005;SDS011;41888;44.696;10.522;2023-09-19T14:10:09;16.15;;;5.53;;
56005;SDS011;41888;44.696;10.522;2023-09-19T14:12:36;12.13;;;5.78;;
56005;SDS011;41888;44.696;10.522;2023-09-19T14:15:06;14.70;;;5.13;;
56005;SDS011;41888;44.696;10.522;2023-09-19T14:17:33;7.30;;;4.60;;
56005;SDS011;41888;44.696;10.522;2023-09-19T14:20:00;14.25;;;5.40;;
56005;SDS011;41888;44.696;10.522;2023-09-19T14:22:26;12.75;;;5.13;;
56005;SDS011;41888;44.696;10.522;2023-09-19T14:24:52;8.95;;;3.72;;
56005;SDS011;41888;44.696;10.522;2023-09-19T14:27:18;12.57;;;4.05;;
56005;SDS011;41888;44.696;10.522;2023-09-19T14:29:44;7.75;;;3.05;;
56005;SDS011;41888;44.696;10.522;2023-09-19T14:32:11;8.25;;;2.53;;
56005;SDS011;41888;44.696;10.522;2023-09-19T14:34:37;3.53;;;1.30;;
56005;SDS011;41888;44.696;10.522;2023-09-19T14:37:07;5.20;;;1.40;;
56005;SDS011;41888;44.696;10.522;2023-09-19T14:39:33;4.15;;;1.95;;
56005;SDS011;41888;44.696;10.522;2023-09-19T14:42:00;2.55;;;1.13;;
56005;SDS011;41888;44.696;10.522;2023-09-19T14:44:26;3.63;;;1.27;;
56005;SDS011;41888;44.696;10.522;2023-09-19T14:46:53;3.67;;;1.80;;
56005;SDS011;41888;44.696;10.522;2023-09-19T14:49:20;4.10;;;1.60;;
56005;SDS011;41888;44.696;10.522;2023-09-19T14:51:46;2.88;;;1.17;;
56005;SDS011;41888;44.696;10.522;2023-09-19T14:54:13;2.78;;;0.80;;
56005;SDS011;41888;44.696;10.522;2023-09-19T14:56:42;4.03;;;1.38;;
56005;SDS011;41888;44.696;10.522;2023-09-19T14:59:09;3.53;;;1.15;;
56005;SDS011;41888;44.696;10.522;2023-09-19T15:01:36;2.80;;;1.10;;
56005;SDS011;41888;44.696;10.522;2023-09-19T15:04:03;4.35;;;1.67;;
56005;SDS011;41888;44.696;10.522;2023-09-19T15:06:29;3.78;;;1.25;;
56005;SDS011;41888;44.696;10.522;2023-09-19T15:08:55;2.22;;;0.95;;
56005;SDS011;41888;44.696;10.522;2023-09-19T15:11:22;4.03;;;1.30;;
56005;SDS011;41888;44.696;10.522;2023-09-19T15:13:51;2.80;;;0.93;;
56005;SDS011;41888;44.696;10.522;2023-09-19T15:16:18;2.28;;;0.90;;
56005;SDS011;41888;44.696;10.522;2023-09-19T15:18:45;2.40;;;1.08;;
56005;SDS011;41888;44.696;10.522;2023-09-19T15:21:14;3.55;;;0.98;;
56005;SDS011;41888;44.696;10.522;2023-09-19T15:23:41;2.95;;;0.80;;
56005;SDS011;41888;44.696;10.522;2023-09-19T15:26:11;4.85;;;1.00;;
56005;SDS011;41888;44.696;10.522;2023-09-19T15:28:39;3.78;;;0.80;;
56005;SDS011;41888;44.696;10.522;2023-09-19T15:31:06;4.78;;;1.02;;
56005;SDS011;41888;44.696;10.522;2023-09-19T15:33:34;5.50;;;0.90;;
56005;SDS011;41888;44.696;10.522;2023-09-19T15:36:04;1.60;;;0.47;;
56005;SDS011;41888;44.696;10.522;2023-09-19T15:41:39;4.22;;;1.05;;
56005;SDS011;41888;44.696;10.522;2023-09-19T15:44:13;1.50;;;0.52;;
56005;SDS011;41888;44.696;10.522;2023-09-19T15:46:41;3.25;;;0.90;;
56005;SDS011;41888;44.696;10.522;2023-09-19T15:49:09;3.15;;;0.75;;
56005;SDS011;41888;44.696;10.522;2023-09-19T15:51:36;3.50;;;0.90;;
56005;SDS011;41888;44.696;10.522;2023-09-19T15:54:10;3.22;;;0.95;;